Cornersburg, Ohio
Current Conditions -  °F | °C
As of 2:51 PM on Thursday 18 Dec 2014 (Local Time) from KYNG Reporting Station
Light Snow Light Snow  
Wind Chill: 21°   Ceiling: 1500
Heat Index: 29°   Visibility: 5mi
Dew Point: 24°   Wind: 8mph
Humidity: 82%   Direction: 250°WSW
Pressure: 30.13"   Gusts: NA
Location:  41.0691°N, 80.6969°W
Report Text: KYNG 181951Z 25007KT 5SM -SN OVC015 M02/M04 A3013 RMK AO2 SLP217 P0000 T10171044
Loading
Personal Weather Stations






























Interactive Weather Map New forecast layout! Learn more

10-Day Weather Forecast

Advertisements
Track Severe Weather on mobile